Portada
METAR-TAF:

METAR-TAF

Aeroports :

Aeroport de Nampula

Nampula, Moçambic

latitud: 15-06S, longitud: 039-17E, altitud: 438 m

Observació

L'informe es va fer fa 26 minuts, a les 07:00 UTC
Vent 10 kt del Sud/Sud-Oest
Temperatura 24°C
Humitat 61%
Pressió 1021 hPa
Visibilitat 10 km o més
Cel ennuvolat a una alçada de 2000 ft

METAR: FQNP 200700Z 21010KT 9999 BKN020 24/16 Q1021

Hora: 09:26 (07:26 UTC)

Pronòstic

L'informe es va fer fa 3 hores i 26 minuts, a les 04:00 UTC
Pronòstic vàlid del 20 a les 06 UTC al 21 a les 12 UTC
Vent 10 kt del Sud/Sud-Est
Visibilitat 10 km o més
Núvols disperses a una alçada de 2000 ft
Evolucionant progressivament
l' 20 a les 18 UTC al 20 a les 20 UTC
Vent 8 kt del Sud-Oest

TAF: FQNP 200400Z 2006/2112 16010KT 9999 SCT020 TX31/2013Z TN18/2103Z BECMG 2018/2020 22008KT

Observacions i pronòstics meteorològics de més de 4000 aeroports (METAR i TAF).

Les estacions disponibles són els punts grocs i vermells al mapa.

Posi el ratolí al punt desitjat per veure el nom de l'estació.

Feu clic per veure les observacions i els pronòstics meteorològics.

Per canviar el mapa: feu clic els botons verds amb una creu de color negre per apropar; al botó verd amb un guió per allunyar la imatge; o en les fletxes verdes per a mapes adjacents.


METAR-TAF: